createdAt,value
2023-03-28T00:01:14.300Z,26.65
2023-03-28T00:03:43.377Z,26.68
2023-03-28T00:06:19.457Z,26.73
2023-03-28T00:08:48.862Z,26.76
2023-03-28T00:11:22.607Z,26.79
2023-03-28T00:13:58.891Z,26.84
2023-03-28T00:16:33.155Z,26.89
2023-03-28T00:19:08.282Z,26.92
2023-03-28T00:21:39.746Z,26.97
2023-03-28T00:24:11.859Z,27.00
2023-03-28T00:26:40.510Z,27.06
2023-03-28T00:29:11.229Z,27.10
2023-03-28T00:31:40.718Z,27.13
2023-03-28T00:34:09.622Z,27.18
2023-03-28T00:36:40.640Z,27.20
2023-03-28T00:39:11.271Z,27.24
2023-03-28T00:41:43.630Z,27.29
2023-03-28T00:44:42.469Z,27.32
2023-03-28T00:47:29.414Z,27.36
2023-03-28T00:50:24.993Z,27.39
2023-03-28T00:53:09.985Z,27.43
2023-03-28T00:55:49.590Z,27.47
2023-03-28T00:58:25.688Z,27.50
2023-03-28T01:00:57.722Z,27.56
2023-03-28T01:03:31.351Z,27.59
2023-03-28T01:06:02.593Z,27.64
2023-03-28T01:08:35.129Z,27.68
2023-03-28T01:11:04.329Z,27.74
2023-03-28T01:13:40.505Z,27.79
2023-03-28T01:16:10.223Z,27.84
2023-03-28T01:18:42.477Z,27.90
2023-03-28T01:21:10.966Z,27.96
2023-03-28T01:23:45.484Z,28.04
2023-03-28T01:26:44.228Z,28.10
2023-03-28T01:29:27.455Z,28.16
2023-03-28T01:32:17.602Z,28.22
2023-03-28T01:34:57.753Z,28.27
2023-03-28T01:37:37.793Z,28.34
2023-03-28T01:40:14.530Z,28.40
2023-03-28T01:42:55.240Z,28.47
2023-03-28T01:46:02.305Z,28.54
2023-03-28T01:48:48.936Z,28.61
2023-03-28T01:51:32.015Z,28.69
2023-03-28T01:54:15.761Z,28.76
2023-03-28T01:56:48.422Z,28.81
2023-03-28T01:59:27.402Z,28.87
2023-03-28T02:02:30.973Z,28.92
2023-03-28T02:05:02.099Z,28.97
2023-03-28T02:07:34.270Z,29.03
2023-03-28T02:10:18.868Z,29.09
2023-03-28T02:12:53.115Z,29.14
2023-03-28T02:15:24.891Z,29.23
2023-03-28T02:17:59.087Z,29.30
2023-03-28T02:20:37.292Z,29.39
2023-03-28T02:23:10.867Z,29.48
2023-03-28T02:25:40.092Z,29.60
2023-03-28T02:28:12.813Z,29.73
2023-03-28T02:30:41.345Z,29.85
2023-03-28T02:33:32.633Z,29.97
2023-03-28T02:36:21.640Z,30.05
2023-03-28T02:39:01.936Z,30.12
2023-03-28T02:41:49.797Z,30.19
2023-03-28T02:44:55.257Z,30.21
2023-03-28T02:47:35.654Z,30.26
2023-03-28T02:50:28.456Z,30.30
2023-03-28T02:53:13.564Z,30.39
2023-03-28T02:56:09.752Z,30.49
2023-03-28T02:58:53.343Z,30.57
2023-03-28T03:01:26.274Z,30.61
2023-03-28T03:03:56.764Z,30.61
2023-03-28T03:06:26.810Z,30.62
2023-03-28T03:08:55.743Z,30.60
2023-03-28T03:11:26.354Z,30.56
2023-03-28T03:13:55.371Z,30.61
2023-03-28T03:16:24.744Z,30.64
2023-03-28T03:18:56.591Z,30.74
2023-03-28T03:21:26.676Z,30.81
2023-03-28T03:23:55.376Z,30.89
2023-03-28T03:26:24.288Z,30.95
2023-03-28T03:28:53.297Z,30.99
2023-03-28T03:31:23.140Z,31.04
2023-03-28T03:33:51.544Z,31.12
2023-03-28T03:36:21.280Z,31.22
2023-03-28T03:38:50.929Z,31.26
2023-03-28T03:41:19.343Z,31.32
2023-03-28T03:43:48.380Z,31.39
2023-03-28T03:46:17.009Z,31.51
2023-03-28T03:48:49.220Z,31.61
2023-03-28T03:51:19.085Z,31.75
2023-03-28T03:53:48.008Z,31.83
2023-03-28T03:56:16.591Z,31.88
2023-03-28T03:58:45.862Z,31.91
2023-03-28T04:01:17.248Z,31.93
2023-03-28T04:03:45.829Z,31.97
2023-03-28T04:06:14.220Z,31.99
2023-03-28T04:08:42.576Z,32.02
2023-03-28T04:11:11.993Z,32.05
2023-03-28T04:13:40.462Z,32.07
2023-03-28T04:16:09.814Z,32.08
2023-03-28T04:18:38.585Z,32.07
2023-03-28T04:21:12.780Z,32.11
2023-03-28T04:23:44.689Z,32.17
2023-03-28T04:26:27.197Z,32.20
2023-03-28T04:28:56.911Z,32.20
2023-03-28T04:31:30.413Z,32.22
2023-03-28T04:34:01.278Z,32.25
2023-03-28T04:36:30.588Z,32.26
2023-03-28T04:39:07.922Z,32.25
2023-03-28T04:41:36.844Z,32.25
2023-03-28T04:44:06.996Z,32.27
2023-03-28T04:46:38.497Z,32.34
2023-03-28T04:49:07.331Z,32.42
2023-03-28T04:51:36.096Z,32.49
2023-03-28T04:54:04.507Z,32.52
2023-03-28T04:56:32.981Z,32.57
2023-03-28T04:59:01.469Z,32.62
2023-03-28T05:01:29.985Z,32.67
2023-03-28T05:03:58.575Z,32.70
2023-03-28T05:06:29.840Z,32.73
2023-03-28T05:08:58.939Z,32.78
2023-03-28T05:11:27.351Z,32.81
2023-03-28T05:13:55.754Z,32.85
2023-03-28T05:16:24.191Z,32.92
2023-03-28T05:18:54.420Z,32.97
2023-03-28T05:21:23.500Z,33.06
2023-03-28T05:23:52.557Z,33.16
2023-03-28T05:26:21.515Z,33.24
2023-03-28T05:28:50.194Z,33.31
2023-03-28T05:31:18.828Z,33.39
2023-03-28T05:33:47.523Z,33.48
2023-03-28T05:36:17.154Z,33.58
2023-03-28T05:38:48.100Z,33.66
2023-03-28T05:41:16.962Z,33.69
2023-03-28T05:43:45.896Z,33.71
2023-03-28T05:46:14.344Z,33.76
2023-03-28T05:48:49.556Z,33.79
2023-03-28T05:51:18.431Z,33.85
2023-03-28T05:53:47.246Z,33.90
2023-03-28T05:56:15.690Z,33.95
2023-03-28T05:58:44.440Z,34.00
2023-03-28T06:01:14.073Z,34.04
2023-03-28T06:03:43.557Z,34.09
2023-03-28T06:06:12.231Z,34.13
2023-03-28T06:08:40.929Z,34.16
2023-03-28T06:11:09.821Z,34.19
2023-03-28T06:13:38.485Z,34.24
2023-03-28T06:16:07.566Z,34.26
2023-03-28T06:18:36.109Z,34.30
2023-03-28T06:21:04.766Z,34.30
2023-03-28T06:23:33.653Z,34.31
2023-03-28T06:26:03.578Z,34.32
2023-03-28T06:28:34.509Z,34.35
2023-03-28T06:31:03.898Z,34.34
2023-03-28T06:33:32.977Z,34.38
2023-03-28T06:36:01.621Z,34.44
2023-03-28T06:38:30.234Z,34.49
2023-03-28T06:40:58.817Z,34.52
2023-03-28T06:43:27.579Z,34.54
2023-03-28T06:45:56.171Z,34.56
2023-03-28T06:48:30.233Z,34.56
2023-03-28T06:50:59.851Z,34.53
2023-03-28T06:53:29.182Z,34.56
2023-03-28T06:55:58.006Z,34.61
2023-03-28T06:58:26.803Z,34.62
2023-03-28T07:00:57.076Z,34.67
2023-03-28T07:03:25.800Z,34.70
2023-03-28T07:05:54.746Z,34.73
2023-03-28T07:08:23.563Z,34.75
2023-03-28T07:10:55.566Z,34.77
2023-03-28T07:13:24.723Z,34.79
2023-03-28T07:16:08.673Z,34.82
2023-03-28T07:18:37.163Z,34.81
2023-03-28T07:21:11.009Z,34.83
2023-03-28T07:23:43.737Z,34.85
2023-03-28T07:26:14.613Z,34.86
2023-03-28T07:28:57.529Z,34.82
2023-03-28T08:45:24.506Z,34.23
2023-03-28T08:48:25.898Z,34.06
2023-03-28T08:51:12.365Z,33.88
2023-03-28T08:53:44.981Z,33.72
2023-03-28T08:56:17.167Z,33.58
2023-03-28T08:58:56.233Z,33.44
2023-03-28T09:01:26.206Z,33.33
2023-03-28T09:03:54.714Z,33.21
2023-03-28T09:06:41.877Z,33.10
2023-03-28T09:09:24.326Z,32.98
2023-03-28T09:12:12.408Z,32.93
2023-03-28T09:15:02.215Z,32.84
2023-03-28T09:18:00.874Z,32.75
2023-03-28T09:21:00.689Z,32.70
2023-03-28T09:23:43.967Z,32.64
2023-03-28T09:26:21.201Z,32.56
2023-03-28T09:29:01.273Z,32.51
2023-03-28T09:31:39.778Z,32.47
2023-03-28T09:34:08.561Z,32.46
2023-03-28T09:36:49.115Z,32.44
2023-03-28T09:39:43.572Z,32.42
2023-03-28T09:42:30.199Z,32.41
2023-03-28T09:45:42.361Z,32.44
2023-03-28T09:48:22.552Z,32.45
2023-03-28T09:50:51.700Z,32.47
2023-03-28T09:53:32.908Z,32.48
2023-03-28T09:56:14.100Z,32.49
2023-03-28T09:58:56.362Z,32.50
2023-03-28T10:01:45.853Z,32.50
2023-03-28T10:04:32.277Z,32.52
2023-03-28T10:07:13.011Z,32.52
2023-03-28T10:10:02.017Z,32.52
2023-03-28T10:12:37.335Z,32.55
2023-03-28T10:15:09.737Z,32.56
2023-03-28T10:17:41.688Z,32.55
2023-03-28T10:20:19.922Z,32.57
2023-03-28T10:22:52.259Z,32.58
2023-03-28T10:25:24.620Z,32.59
2023-03-28T10:27:54.390Z,32.59
2023-03-28T10:30:32.587Z,32.61
2023-03-28T10:33:18.832Z,32.59
2023-03-28T10:35:58.714Z,32.56
2023-03-28T10:38:37.487Z,32.54
2023-03-28T10:41:11.038Z,32.50
2023-03-28T10:43:43.270Z,32.45
2023-03-28T10:46:22.913Z,32.40
2023-03-28T10:48:57.749Z,32.34
2023-03-28T10:51:27.783Z,32.31
2023-03-28T10:54:32.755Z,32.26
2023-03-28T10:57:27.315Z,32.24
2023-03-28T11:00:11.244Z,32.20
2023-03-28T11:03:14.854Z,32.15
2023-03-28T11:06:15.399Z,32.09
2023-03-28T11:08:49.706Z,32.05
2023-03-28T11:11:33.166Z,32.01
2023-03-28T11:15:02.714Z,31.95
2023-03-28T11:17:42.140Z,31.86
2023-03-28T11:20:29.296Z,31.81
2023-03-28T11:23:38.328Z,31.77
2023-03-28T11:26:10.525Z,31.71
2023-03-28T11:29:10.460Z,31.66
2023-03-28T11:31:44.677Z,31.62
2023-03-28T11:34:41.482Z,31.57
2023-03-28T11:37:28.051Z,31.48
2023-03-28T11:40:10.216Z,31.44
2023-03-28T11:42:48.183Z,31.41
2023-03-28T11:45:50.169Z,31.35
2023-03-28T11:48:40.749Z,31.30
2023-03-28T11:51:24.190Z,31.26
2023-03-28T11:54:04.145Z,31.23
2023-03-28T11:56:38.183Z,31.18
2023-03-28T11:59:40.182Z,31.13
2023-03-28T12:02:28.739Z,31.08
2023-03-28T12:05:23.718Z,31.00
2023-03-28T12:08:09.279Z,30.96
2023-03-28T12:10:39.167Z,30.92
2023-03-28T12:13:32.682Z,30.87
2023-03-28T12:16:06.921Z,30.84
2023-03-28T12:18:52.432Z,30.81
2023-03-28T12:21:27.155Z,30.79
2023-03-28T12:24:19.936Z,30.76
2023-03-28T12:27:10.481Z,30.73
2023-03-28T12:29:48.270Z,30.72
2023-03-28T12:32:55.197Z,30.71
2023-03-28T12:35:23.714Z,30.70
2023-03-28T12:37:57.832Z,30.69
2023-03-28T12:40:44.489Z,30.68
2023-03-28T12:43:18.228Z,30.67
2023-03-28T12:45:57.433Z,30.65
2023-03-28T12:48:42.949Z,30.62
2023-03-28T12:51:31.131Z,30.59
2023-03-28T12:54:16.712Z,30.57
2023-03-28T12:57:11.161Z,30.54
2023-03-28T12:59:45.479Z,30.53
2023-03-28T13:02:27.469Z,30.52
2023-03-28T13:05:01.062Z,30.49
2023-03-28T13:07:38.852Z,30.49
2023-03-28T13:10:30.833Z,30.48
2023-03-28T13:13:18.683Z,30.45
2023-03-28T13:16:07.727Z,30.42
2023-03-28T13:18:36.732Z,30.40
2023-03-28T13:21:08.120Z,30.38
2023-03-28T13:23:47.039Z,30.38
2023-03-28T13:26:15.914Z,30.35
2023-03-28T13:28:46.167Z,30.35
2023-03-28T13:31:35.185Z,30.34
2023-03-28T13:34:04.944Z,30.32
2023-03-28T13:36:35.359Z,30.30
2023-03-28T13:39:08.389Z,30.29
2023-03-28T13:41:43.116Z,30.28
2023-03-28T13:44:15.542Z,30.26
2023-03-28T13:46:51.794Z,30.25
2023-03-28T13:49:45.145Z,30.24
2023-03-28T13:52:25.836Z,30.24
2023-03-28T13:55:02.625Z,30.23
2023-03-28T13:57:31.303Z,30.22
2023-03-28T14:00:07.694Z,30.18
2023-03-28T14:02:44.252Z,30.09
2023-03-28T14:05:17.382Z,29.97
2023-03-28T14:07:45.847Z,29.82
2023-03-28T14:10:42.128Z,29.63
2023-03-28T14:13:22.122Z,29.46
2023-03-28T14:15:56.841Z,29.31
2023-03-28T14:18:32.878Z,29.19
2023-03-28T14:21:02.597Z,29.08
2023-03-28T14:23:41.951Z,29.01
2023-03-28T14:26:19.609Z,28.96
2023-03-28T14:28:48.197Z,28.89
2023-03-28T14:31:34.123Z,28.82
2023-03-28T14:34:17.518Z,28.76
2023-03-28T14:37:19.358Z,28.70
2023-03-28T14:39:48.278Z,28.68
2023-03-28T14:42:19.243Z,28.64
2023-03-28T14:44:54.162Z,28.62
2023-03-28T14:47:34.216Z,28.61
2023-03-28T14:50:04.212Z,28.60
2023-03-28T14:52:41.723Z,28.58
2023-03-28T14:55:18.272Z,28.57
2023-03-28T14:57:49.057Z,28.54
2023-03-28T15:00:23.306Z,28.52
2023-03-28T15:02:53.823Z,28.55
2023-03-28T15:05:24.557Z,28.55
2023-03-28T15:08:03.106Z,28.56
2023-03-28T15:10:32.874Z,28.54
2023-03-28T15:13:04.527Z,28.52
2023-03-28T15:15:39.162Z,28.49
2023-03-28T15:18:13.042Z,28.46
2023-03-28T15:20:48.698Z,28.45
2023-03-28T15:23:25.235Z,28.39
2023-03-28T15:25:54.489Z,28.23
2023-03-28T15:28:23.523Z,27.89
2023-03-28T15:30:52.042Z,27.66
2023-03-28T15:33:23.761Z,27.32
2023-03-28T15:36:05.118Z,27.03
2023-03-28T15:38:38.071Z,26.85
2023-03-28T15:41:19.562Z,26.61
2023-03-28T15:43:57.657Z,26.47
2023-03-28T15:46:34.308Z,26.33
2023-03-28T15:49:05.949Z,26.05
2023-03-28T15:51:59.785Z,25.35
2023-03-28T15:54:31.845Z,24.50
2023-03-28T15:57:03.364Z,23.82
2023-03-28T15:59:37.325Z,23.48
2023-03-28T16:02:25.882Z,23.16
2023-03-28T16:05:37.681Z,23.00
2023-03-28T16:08:43.657Z,22.94
2023-03-28T16:11:21.397Z,22.89
2023-03-28T16:13:50.354Z,22.86
2023-03-28T16:16:40.333Z,22.85
2023-03-28T16:19:22.324Z,22.85
2023-03-28T16:21:50.789Z,22.89
2023-03-28T16:24:20.943Z,22.93
2023-03-28T16:26:49.713Z,23.00
2023-03-28T16:29:18.123Z,23.08
2023-03-28T16:31:46.849Z,23.12
2023-03-28T16:34:15.361Z,23.18
2023-03-28T16:36:43.779Z,23.23
2023-03-28T16:39:12.990Z,23.25
2023-03-28T16:41:41.673Z,23.28
2023-03-28T16:44:10.413Z,23.30
2023-03-28T16:46:38.963Z,23.32
2023-03-28T16:49:07.407Z,23.34
2023-03-28T16:51:35.822Z,23.37
2023-03-28T16:54:04.474Z,23.38
2023-03-28T16:56:33.436Z,23.41
2023-03-28T16:59:01.978Z,23.44
2023-03-28T17:01:30.656Z,23.44
2023-03-28T17:04:00.009Z,23.46
2023-03-28T17:06:28.595Z,23.45
2023-03-28T17:08:57.327Z,23.46
2023-03-28T17:11:27.193Z,23.48
2023-03-28T17:13:56.298Z,23.47
2023-03-28T17:16:25.016Z,23.49
2023-03-28T17:18:54.683Z,23.49
2023-03-28T17:21:23.146Z,23.50
2023-03-28T17:23:52.127Z,23.52
2023-03-28T17:26:20.639Z,23.54
2023-03-28T17:28:49.585Z,23.56
2023-03-28T17:31:20.812Z,23.56
2023-03-28T17:33:50.387Z,23.57
2023-03-28T17:36:24.497Z,23.61
2023-03-28T17:38:56.096Z,23.63
2023-03-28T17:41:25.944Z,23.67
2023-03-28T17:43:55.920Z,23.72
2023-03-28T17:46:25.347Z,23.74
2023-03-28T17:48:54.753Z,23.78
2023-03-28T17:51:23.626Z,23.82
2023-03-28T17:53:52.375Z,23.86
2023-03-28T17:56:21.020Z,23.89
2023-03-28T17:58:49.392Z,23.92
2023-03-28T18:01:23.250Z,23.95
2023-03-28T18:03:52.718Z,23.98
2023-03-28T18:06:21.220Z,24.00
2023-03-28T18:08:49.751Z,24.02
2023-03-28T18:11:19.723Z,24.04
2023-03-28T18:13:48.089Z,24.05
2023-03-28T18:16:19.263Z,24.07
2023-03-28T18:18:48.982Z,24.08
2023-03-28T18:21:17.461Z,24.10
2023-03-28T18:23:45.804Z,24.12
2023-03-28T18:26:14.188Z,24.13
2023-03-28T18:28:42.725Z,24.16
2023-03-28T18:31:16.536Z,24.15
2023-03-28T18:33:46.043Z,24.17
2023-03-28T18:36:15.477Z,24.18
2023-03-28T18:38:45.371Z,24.17
2023-03-28T18:41:14.421Z,24.17
2023-03-28T18:43:44.493Z,24.17
2023-03-28T18:46:16.161Z,24.17
2023-03-28T18:48:45.702Z,24.17
2023-03-28T18:51:14.576Z,24.18
2023-03-28T18:53:44.082Z,24.18
2023-03-28T18:56:14.293Z,24.20
2023-03-28T18:58:42.697Z,24.21
2023-03-28T19:01:12.325Z,24.22
2023-03-28T19:03:44.003Z,24.24
2023-03-28T19:06:14.068Z,24.25
2023-03-28T19:08:43.367Z,24.25
2023-03-28T19:11:14.329Z,24.25
2023-03-28T19:16:29.903Z,24.26
2023-03-28T19:18:58.267Z,24.26
2023-03-28T19:21:26.641Z,24.27
2023-03-28T19:23:55.725Z,24.26
2023-03-28T19:26:24.405Z,24.27
2023-03-28T19:28:52.818Z,24.27
2023-03-28T19:31:24.934Z,24.26
2023-03-28T19:36:22.368Z,24.27
2023-03-28T19:38:50.795Z,24.27
2023-03-28T19:41:23.081Z,24.27
2023-03-28T19:43:56.301Z,24.24
2023-03-28T19:46:36.369Z,24.23
2023-03-28T19:49:07.635Z,24.22
2023-03-28T19:51:36.588Z,24.20
2023-03-28T19:54:05.660Z,24.19
2023-03-28T19:56:34.418Z,24.18
2023-03-28T19:59:02.824Z,24.17
2023-03-28T20:01:31.307Z,24.14
2023-03-28T20:03:59.698Z,24.12
2023-03-28T20:06:28.106Z,24.10
2023-03-28T20:08:56.548Z,24.09
2023-03-28T20:11:24.929Z,24.10
2023-03-28T20:13:53.553Z,24.11
2023-03-28T20:16:22.122Z,24.10
2023-03-28T20:18:50.488Z,24.11
2023-03-28T20:21:18.949Z,24.11
2023-03-28T20:23:47.410Z,24.10
2023-03-28T20:26:21.445Z,24.10
2023-03-28T20:28:52.545Z,24.10
2023-03-28T20:31:21.260Z,24.10
2023-03-28T20:33:50.143Z,24.10
2023-03-28T20:36:18.466Z,24.10
2023-03-28T20:38:46.876Z,24.11
2023-03-28T20:41:18.471Z,24.11
2023-03-28T20:43:51.005Z,24.12
2023-03-28T20:46:20.679Z,24.12
2023-03-28T20:48:53.358Z,24.12
2023-03-28T20:51:25.192Z,24.12
2023-03-28T20:54:02.871Z,24.13
2023-03-28T20:56:32.748Z,24.13
2023-03-28T20:59:01.210Z,24.14
2023-03-28T21:01:31.605Z,24.13
2023-03-28T21:04:05.457Z,24.14
2023-03-28T21:06:38.945Z,24.13
2023-03-28T21:09:10.948Z,24.13
2023-03-28T21:11:41.164Z,24.13
2023-03-28T21:14:12.563Z,24.12
2023-03-28T21:16:41.778Z,24.12
2023-03-28T21:19:10.631Z,24.10
2023-03-28T21:21:39.141Z,24.11
2023-03-28T21:24:08.362Z,24.09
2023-03-28T21:26:37.038Z,24.09
2023-03-28T21:29:05.750Z,24.10
2023-03-28T21:31:38.356Z,24.10
2023-03-28T21:34:07.231Z,24.11
2023-03-28T21:36:35.803Z,24.10
2023-03-28T21:39:04.815Z,24.13
2023-03-28T21:41:33.461Z,24.13
2023-03-28T21:44:02.050Z,24.12
2023-03-28T21:46:30.544Z,24.15
2023-03-28T21:48:58.982Z,24.18
2023-03-28T21:51:27.421Z,24.20
2023-03-28T21:53:55.881Z,24.22
2023-03-28T21:56:24.248Z,24.24
2023-03-28T21:58:52.792Z,24.26
2023-03-28T22:03:50.111Z,24.31
2023-03-28T22:06:19.626Z,24.33
2023-03-28T22:08:52.926Z,24.36
2023-03-28T22:11:28.560Z,24.38
2023-03-28T22:14:05.834Z,24.40
2023-03-28T22:16:38.338Z,24.42
2023-03-28T22:19:09.547Z,24.44
2023-03-28T22:21:38.292Z,24.46
2023-03-28T22:24:11.687Z,24.46
2023-03-28T22:26:41.563Z,24.45
2023-03-28T22:29:10.007Z,24.45
2023-03-28T22:31:38.840Z,24.45
2023-03-28T22:34:08.536Z,24.45
2023-03-28T22:36:37.005Z,24.44
2023-03-28T22:39:05.758Z,24.45
2023-03-28T22:41:34.182Z,24.44
2023-03-28T22:44:03.194Z,24.44
2023-03-28T22:46:31.899Z,24.43
2023-03-28T22:49:00.362Z,24.44
2023-03-28T22:51:28.865Z,24.43
2023-03-28T22:54:01.285Z,24.43
2023-03-28T22:56:29.710Z,24.40
2023-03-28T22:59:01.904Z,24.40
2023-03-28T23:01:30.512Z,24.40
2023-03-28T23:03:59.011Z,24.40
2023-03-28T23:06:30.041Z,24.38
2023-03-28T23:08:59.659Z,24.37
2023-03-28T23:11:28.470Z,24.36
2023-03-28T23:13:56.897Z,24.35
2023-03-28T23:16:25.399Z,24.35
2023-03-28T23:18:54.299Z,24.34
2023-03-28T23:21:22.815Z,24.34
2023-03-28T23:23:51.326Z,24.32
2023-03-28T23:26:19.858Z,24.33
2023-03-28T23:28:48.250Z,24.33
2023-03-28T23:31:16.740Z,24.33
2023-03-28T23:33:47.942Z,24.34
2023-03-28T23:36:21.268Z,24.34
2023-03-28T23:38:50.978Z,24.35
2023-03-28T23:41:19.360Z,24.35
2023-03-28T23:43:47.823Z,24.38
2023-03-28T23:46:16.665Z,24.38
2023-03-28T23:48:45.057Z,24.40
2023-03-28T23:51:13.721Z,24.42
2023-03-28T23:53:42.381Z,24.43
2023-03-28T23:56:10.886Z,24.44
2023-03-28T23:58:39.237Z,24.47
